Home > Products > Valid Products > TAF

000
FTUS43 KGRB 180500
TAFGRB
TAF
KGRB 180520Z 1806/1906 31006KT P6SM SCT040 SCT250
      TEMPO 1806/1809 BKN035
     FM181500 34007KT P6SM SCT040 BKN120
     FM182100 03009G15KT P6SM SCT060 BKN100
     FM190100 08006KT P6SM SCT120=



000
FTUS43 KGRB 172300
TAFGRB
TAF
KGRB 172322Z 1800/1824 32006KT P6SM BKN045
     FM180300 32006KT P6SM SCT045 SCT250
     FM181000 34005KT P6SM SCT120 BKN250
     FM181500 33007KT P6SM SCT030 BKN100
     FM182100 03009G14KT P6SM SCT045 BKN120=



000
FTUS43 KGRB 172300
TAFGRB
TAF
KGRB 172322Z 1800/1824 32006KT P6SM BKN045
     FM180300 32006KT P6SM SCT045 SCT250
     FM181000 34005KT P6SM SCT120 BKN250
     FM181500 33007KT P6SM SCT030 BKN100
     FM182100 03009G14KT P6SM SCT045 BKN120=



000
FTUS43 KGRB 172000 AAA
TAFGRB
TAF AMD
KGRB 172010Z 1720/1818 29009KT P6SM BKN045
     FM180300 31006KT P6SM SCT040 SCT250
     FM181200 34006KT P6SM SCT130 SCT250
     FM181600 34007KT P6SM BKN130 BKN250=



000
FTUS43 KGRB 172000 AAA
TAFGRB
TAF AMD
KGRB 172010Z 1720/1818 29009KT P6SM BKN045
     FM180300 31006KT P6SM SCT040 SCT250
     FM181200 34006KT P6SM SCT130 SCT250
     FM181600 34007KT P6SM BKN130 BKN250=



000
FTUS43 KGRB 171700
TAFGRB
TAF
KGRB 171722Z 1718/1818 22010KT P6SM BKN035
      TEMPO 1718/1719 SCT035
     FM172100 26010KT P6SM OVC020
     FM180300 31006KT P6SM SCT030 SCT250
     FM181200 34006KT P6SM SCT130 SCT250
     FM181600 34007KT P6SM BKN130 BKN250=



000
FTUS43 KGRB 171700
TAFGRB
TAF
KGRB 171722Z 1718/1818 22010KT P6SM BKN035
      TEMPO 1718/1719 SCT035
     FM172100 26010KT P6SM OVC020
     FM180300 31006KT P6SM SCT030 SCT250
     FM181200 34006KT P6SM SCT130 SCT250
     FM181600 34007KT P6SM BKN130 BKN250=



000
FTUS43 KGRB 171400 AAA
TAFGRB
TAF AMD
KGRB 171415Z 1714/1812 15012KT P6SM BKN040
     FM171800 24010G18KT P6SM BKN025
     FM172200 28009KT P6SM BKN035
     FM180400 31005KT P6SM SCT035=



000
FTUS43 KGRB 171400 AAA
TAFGRB
TAF AMD
KGRB 171415Z 1714/1812 15012KT P6SM BKN040
     FM171800 24010G18KT P6SM BKN025
     FM172200 28009KT P6SM BKN035
     FM180400 31005KT P6SM SCT035=



000
FTUS43 KGRB 171100 RRA
TAFGRB
TAF
KGRB 171142Z 1712/1812 13014G22KT P6SM SCT015 OVC060 WS015/17040KT
      TEMPO 1712/1714 3SM -RASN BR BKN012
     FM171400 17011G18KT P6SM SCT015 OVC035
      TEMPO 1714/1718 BKN015
     FM171800 24010G18KT P6SM BKN025
     FM172200 28009KT P6SM BKN035
     FM180400 31005KT P6SM SCT035=



000
FTUS43 KGRB 171100 RRA
TAFGRB
TAF
KGRB 171142Z 1712/1812 13014G22KT P6SM SCT015 OVC060 WS015/17040KT
      TEMPO 1712/1714 3SM -RASN BR BKN012
     FM171400 17011G18KT P6SM SCT015 OVC035
      TEMPO 1714/1718 BKN015
     FM171800 24010G18KT P6SM BKN025
     FM172200 28009KT P6SM BKN035
     FM180400 31005KT P6SM SCT035=



000
FTUS43 KGRB 170500
TAFGRB
TAF
KGRB 170520Z 1706/1806 11011G19KT P6SM SCT050 OVC090 WS016/16040KT
     FM170900 10012G18KT P6SM -RASN SCT020 OVC040 WS015/16045KT
      TEMPO 1710/1714 3SM -SN BR BKN013
     FM171400 17013G20KT 4SM -RA BR SCT009 BKN015
      TEMPO 1714/1718 2SM -RASN
     FM172000 23010G18KT P6SM BKN025
     FM180000 29008KT P6SM BKN035
     FM180300 32005KT P6SM SCT040=



000
FTUS43 KGRB 170500
TAFGRB
TAF
KGRB 170520Z 1706/1806 11011G19KT P6SM SCT050 OVC090 WS016/16040KT
     FM170900 10012G18KT P6SM -RASN SCT020 OVC040 WS015/16045KT
      TEMPO 1710/1714 3SM -SN BR BKN013
     FM171400 17013G20KT 4SM -RA BR SCT009 BKN015
      TEMPO 1714/1718 2SM -RASN
     FM172000 23010G18KT P6SM BKN025
     FM180000 29008KT P6SM BKN035
     FM180300 32005KT P6SM SCT040=



000
FTUS43 KGRB 162300
TAFGRB
TAF
KGRB 162326Z 1700/1724 14014G24KT P6SM BKN100
     FM170400 11013G20KT P6SM SCT045 OVC080 WS016/17040KT
     FM170800 10012G18KT P6SM -RASN SCT020 OVC040 WS015/17045KT
      TEMPO 1710/1714 3SM -SN BR BKN013
     FM171400 17013G20KT 4SM -RA BR SCT009 BKN015
      TEMPO 1714/1718 2SM -RASN
     FM172000 23010G18KT P6SM BKN025
     FM172300 28009KT P6SM BKN035=



000
FTUS43 KGRB 162300
TAFGRB
TAF
KGRB 162326Z 1700/1724 14014G24KT P6SM BKN100
     FM170400 11013G20KT P6SM SCT045 OVC080 WS016/17040KT
     FM170800 10012G18KT P6SM -RASN SCT020 OVC040 WS015/17045KT
      TEMPO 1710/1714 3SM -SN BR BKN013
     FM171400 17013G20KT 4SM -RA BR SCT009 BKN015
      TEMPO 1714/1718 2SM -RASN
     FM172000 23010G18KT P6SM BKN025
     FM172300 28009KT P6SM BKN035=



000
FTUS43 KGRB 161700
TAFGRB
TAF
KGRB 161721Z 1618/1718 14013G22KT P6SM VCSH FEW025 OVC060
     FM162000 12017G24KT P6SM BKN090
     FM170400 11013KT P6SM SCT035 OVC070 WS015/17040KT
     FM170800 10012KT P6SM -RASN SCT020 OVC040 WS015/17040KT
      TEMPO 1710/1714 3SM -RASN BR BKN020
     FM171400 16013KT 4SM -RA BR SCT012 OVC025=



000
FTUS43 KGRB 161700
TAFGRB
TAF
KGRB 161721Z 1618/1718 14013G22KT P6SM VCSH FEW025 OVC060
     FM162000 12017G24KT P6SM BKN090
     FM170400 11013KT P6SM SCT035 OVC070 WS015/17040KT
     FM170800 10012KT P6SM -RASN SCT020 OVC040 WS015/17040KT
      TEMPO 1710/1714 3SM -RASN BR BKN020
     FM171400 16013KT 4SM -RA BR SCT012 OVC025=



000
FTUS43 KGRB 161100
TAFGRB
TAF
KGRB 161134Z 1612/1712 13006KT P6SM BKN090
     FM161400 14013G21KT 6SM -SN SCT025 OVC050
      TEMPO 1616/1620 3SM -SN BKN020
     FM162000 12016G25KT P6SM SCT050 BKN090 WS015/15040KT
     FM170400 12013G21KT P6SM -RASN SCT025 OVC050 WS012/15040KT
     FM170800 10013G21KT 4SM -RASN BR BKN020 OVC035 WS012/15040KT
      TEMPO 1710/1712 2SM -SN OVC015=



000
FTUS43 KGRB 160500
TAFGRB
TAF
KGRB 160520Z 1606/1706 VRB03KT P6SM BKN200
     FM160900 13005KT P6SM BKN120
     FM161500 13012G22KT 4SM -RASN SCT030 OVC050
     FM161800 14016G26KT P6SM SCT050 BKN100
     FM170200 12012G21KT P6SM BKN070 WS018/17050KT PROB30 1702/1706
      4SM -RASN BKN035=



000
FTUS43 KGRB 160500
TAFGRB
TAF
KGRB 160520Z 1606/1706 VRB03KT P6SM BKN200
     FM160900 13005KT P6SM BKN120
     FM161500 13012G22KT 4SM -RASN SCT030 OVC050
     FM161800 14016G26KT P6SM SCT050 BKN100
     FM170200 12012G21KT P6SM BKN070 WS018/17050KT PROB30 1702/1706
      4SM -RASN BKN035=



000
FTUS43 KGRB 152300
TAFGRB
TAF
KGRB 152331Z 1600/1624 26007KT P6SM SCT060
     FM160300 VRB03KT P6SM BKN200
     FM160800 13005KT P6SM BKN120
     FM161400 13013G23KT 4SM -SN SCT030 OVC050
      TEMPO 1614/1618 -RASN
     FM161800 14016G26KT P6SM SCT050 BKN100=



000
FTUS43 KGRB 152300
TAFGRB
TAF
KGRB 152331Z 1600/1624 26007KT P6SM SCT060
     FM160300 VRB03KT P6SM BKN200
     FM160800 13005KT P6SM BKN120
     FM161400 13013G23KT 4SM -SN SCT030 OVC050
      TEMPO 1614/1618 -RASN
     FM161800 14016G26KT P6SM SCT050 BKN100=



000
FTUS43 KGRB 151700
TAFGRB
TAF
KGRB 151737Z 1518/1618 28012KT P6SM SCT045
      TEMPO 1518/1521 -SN BKN040
     FM160100 26004KT P6SM SCT200
     FM160600 VRB03KT P6SM BKN120
     FM161400 12012G20KT P6SM -SN SCT030 OVC050=



000
FTUS43 KGRB 151700
TAFGRB
TAF
KGRB 151737Z 1518/1618 28012KT P6SM SCT045
      TEMPO 1518/1521 -SN BKN040
     FM160100 26004KT P6SM SCT200
     FM160600 VRB03KT P6SM BKN120
     FM161400 12012G20KT P6SM -SN SCT030 OVC050=



000
FTUS43 KGRB 151600 AAA
TAFGRB
TAF AMD
KGRB 151614Z 1516/1612 28010KT P6SM SCT045
      TEMPO 1517/1521 BKN040
     FM152300 26007KT P6SM SCT200
     FM160400 VRB03KT P6SM BKN140
     FM160900 12007KT P6SM OVC080=



000
FTUS43 KGRB 151600 AAA
TAFGRB
TAF AMD
KGRB 151614Z 1516/1612 28010KT P6SM SCT045
      TEMPO 1517/1521 BKN040
     FM152300 26007KT P6SM SCT200
     FM160400 VRB03KT P6SM BKN140
     FM160900 12007KT P6SM OVC080=



000
FTUS43 KGRB 151100
TAFGRB
TAF
KGRB 151125Z 1512/1612 32008KT P6SM SKC
     FM151500 29010G18KT P6SM SCT050
      TEMPO 1516/1520 BKN050
     FM152300 26007KT P6SM SCT200
     FM160400 VRB03KT P6SM BKN140
     FM160900 12007KT P6SM OVC080=



000
FTUS43 KGRB 151100
TAFGRB
TAF
KGRB 151125Z 1512/1612 32008KT P6SM SKC
     FM151500 29010G18KT P6SM SCT050
      TEMPO 1516/1520 BKN050
     FM152300 26007KT P6SM SCT200
     FM160400 VRB03KT P6SM BKN140
     FM160900 12007KT P6SM OVC080=



    US Dept of Commerce
    National Oceanic and Atmospheric Administration
    National Weather Service
    1325 East West Highway
    Silver Spring, MD 20910
    Page Author: NWS Internet Services Team
Disclaimer
Information Quality
Credits
Glossary
Privacy Policy
Freedom of Information Act (FOIA)
About Us
Career Opportunities